Карточка аэропорта UOOO

Внимание!
Информация на этой странице в стадии наполнения.
Если вы не увидели какой-то информации, или заметили неточность - пожалуйста сообщите нам!
Спасибо!
Команда RU-STAFF
Название аэропортаАлыкель
Название аэропорта (англ.)Alykel
Превышение574 ft. (175 m.)
Координаты69°19.02', 87°19.02'
Высота перехода1200m
Эшелон переходаQFE>744:FL60;744>QFE>717:FL70;717>QFE:FL80
Коды ответчика5401-5427
Зона ОрВДКрасноярск РПИ (UNKL)
Данные METARUOOO 160930Z 16013MPS 2200 -SN BLSN SCT020 M13/M15 Q1008 R19/810360 NOSIG RMK QFE740/0987
Проноз погоды (TAF)UOOO 160750Z 1609/1709 19010G18MPS 2700 -SN BLSN BKN016 TEMPO 1609/1612 0700 SN BLSN BECMG 1612/1615 1000 SN BLSN TEMPO 1615/1624 24008G18MPS 0450 +SN BLSN BKN011 BECMG 1700/1703 36006G12MPS 2100 -SN BLSN
NOTAMshow/hide NOTAM
AWOS   TABLE

Информация о ВПП

ВПП Длина ВПП (м.) Покрытие Курс ВПП Частота ILS
013430Бетон13109.5
193430Бетон193110.3

Диспетчерские позиции

Позывной Наименование органа УВД Частота
UOOO_R_APPНорильск - Круг120.400
UOOO_GNDНорильск - Руление121.700
UOOO_TWRНорильск - Старт118.300



Спутниковое изображение